Time;durP1;ratioP1;P1;durP2;ratioP2;P2;SDS_P1;SDS_P2;PMS_P1;PMS_P2;Temp;Humidity;BMP_temperature;BMP_pressure;BME280_temperature;BME280_humidity;BME280_pressure;Samples;Min_cycle;Max_cycle;Signal;HPM_P1;HPM_P2
2023/06/21 00:00:15;;;;;;;6.65;1.08;;;18.10;99.90;;;;;;5045812;28;20053;-75
2023/06/21 00:02:44;;;;;;;0.50;0.50;;;18.10;99.90;;;;;;5045597;28;20041;-75
2023/06/21 00:05:10;;;;;;;3.65;1.95;;;18.10;99.90;;;;;;5051337;28;20037;-75
2023/06/21 00:07:38;;;;;;;1.13;1.02;;;18.20;99.90;;;;;;5066407;28;20458;-73
2023/06/21 00:10:07;;;;;;;3.40;1.35;;;18.20;99.90;;;;;;5066317;28;20397;-75
2023/06/21 00:12:33;;;;;;;1.58;1.05;;;18.20;99.90;;;;;;5066055;28;20558;-75
2023/06/21 00:14:59;;;;;;;4.78;1.77;;;18.40;99.90;;;;;;5065436;28;20044;-74
2023/06/21 00:17:25;;;;;;;0.68;0.50;;;18.20;99.90;;;;;;5066159;28;20040;-75
2023/06/21 00:19:55;;;;;;;2.97;1.02;;;18.10;99.90;;;;;;5065643;28;20064;-74
2023/06/21 00:22:21;;;;;;;3.42;1.17;;;18.20;99.90;;;;;;5065842;28;20049;-75
2023/06/21 00:24:48;;;;;;;1.17;0.70;;;18.20;99.90;;;;;;5065730;28;20491;-75
2023/06/21 00:27:15;;;;;;;1.17;0.85;;;18.20;99.90;;;;;;5065118;28;20054;-75
2023/06/21 00:29:40;;;;;;;0.75;0.75;;;18.20;99.90;;;;;;5065486;28;20072;-75
2023/06/21 00:32:06;;;;;;;4.40;2.03;;;18.20;99.90;;;;;;5048380;28;20080;-75
2023/06/21 00:34:32;;;;;;;2.45;1.65;;;18.30;99.90;;;;;;5048982;28;20060;-75
2023/06/21 00:36:58;;;;;;;1.83;1.67;;;18.20;99.90;;;;;;5064340;28;20045;-75
2023/06/21 00:39:23;;;;;;;4.35;0.90;;;18.40;99.90;;;;;;5065895;28;20041;-75
2023/06/21 00:41:49;;;;;;;1.52;1.23;;;18.30;99.90;;;;;;5065879;28;20423;-75
2023/06/21 00:44:15;;;;;;;0.60;0.57;;;18.30;99.90;;;;;;5064706;28;20072;-75
2023/06/21 00:46:40;;;;;;;3.60;1.70;;;18.30;99.90;;;;;;5048324;28;20052;-74
2023/06/21 00:49:06;;;;;;;0.80;0.80;;;18.40;99.90;;;;;;5045681;28;20075;-74
2023/06/21 00:51:32;;;;;;;2.35;1.33;;;18.30;99.90;;;;;;5045311;28;20060;-75
2023/06/21 00:53:59;;;;;;;1.58;1.17;;;18.30;99.90;;;;;;5045201;28;20060;-75
2023/06/21 00:56:25;;;;;;;2.35;1.98;;;18.30;99.90;;;;;;5061330;28;20045;-75
2023/06/21 00:58:50;;;;;;;2.45;1.50;;;18.40;99.90;;;;;;5065309;28;20045;-75
2023/06/21 01:01:16;;;;;;;1.90;1.65;;;18.30;99.90;;;;;;5064805;28;20056;-75
2023/06/21 01:03:42;;;;;;;1.95;0.93;;;18.30;99.90;;;;;;5065056;28;20049;-76
2023/06/21 01:06:33;;;;;;;1.10;1.00;;;18.30;99.90;;;;;;5065095;28;20421;-75
2023/06/21 01:09:25;;;;;;;2.63;1.58;;;18.30;99.90;;;;;;5065402;28;20056;-74
2023/06/21 01:12:06;;;;;;;1.13;0.63;;;18.30;99.90;;;;;;5064935;28;20051;-75
2023/06/21 01:14:44;;;;;;;0.90;0.75;;;18.30;99.90;;;;;;5064301;28;20052;-75
2023/06/21 01:17:11;;;;;;;0.75;0.65;;;18.30;99.90;;;;;;5045376;28;20049;-75
2023/06/21 01:19:53;;;;;;;2.72;1.05;;;18.30;99.90;;;;;;5045288;28;20044;-75
2023/06/21 01:22:24;;;;;;;1.25;0.85;;;18.20;99.90;;;;;;5045034;28;20045;-75
2023/06/21 01:25:18;;;;;;;2.67;1.48;;;18.30;99.90;;;;;;5027483;28;20504;-75
2023/06/21 01:27:52;;;;;;;2.35;1.63;;;18.20;99.90;;;;;;5022147;28;20064;-74
2023/06/21 01:30:20;;;;;;;5.18;2.20;;;18.20;99.90;;;;;;5044778;28;20040;-75
2023/06/21 01:32:53;;;;;;;3.00;1.55;;;18.20;99.90;;;;;;5044539;28;20095;-75
2023/06/21 01:35:21;;;;;;;2.15;1.40;;;18.20;99.90;;;;;;5044126;28;20055;-75
2023/06/21 01:37:50;;;;;;;2.58;1.67;;;18.20;99.90;;;;;;5044224;28;20053;-75
2023/06/21 01:40:15;;;;;;;2.38;1.13;;;18.10;99.90;;;;;;5044649;28;20041;-75
2023/06/21 01:42:41;;;;;;;3.22;1.50;;;18.20;99.90;;;;;;5043786;28;20052;-75
2023/06/21 01:45:08;;;;;;;1.90;1.55;;;18.20;99.90;;;;;;5044739;28;20135;-75
2023/06/21 01:47:35;;;;;;;11.18;2.72;;;18.20;99.90;;;;;;5044201;28;20047;-75
2023/06/21 01:50:04;;;;;;;4.38;1.58;;;18.20;99.90;;;;;;5044554;28;20524;-75
2023/06/21 01:52:31;;;;;;;2.28;1.15;;;18.10;99.90;;;;;;5044015;28;20061;-77
2023/06/21 01:54:57;;;;;;;2.55;1.55;;;18.10;99.90;;;;;;5044505;28;20041;-75
2023/06/21 01:57:24;;;;;;;0.68;0.68;;;18.10;99.90;;;;;;5044236;28;20067;-75
2023/06/21 01:59:50;;;;;;;1.35;1.25;;;18.00;99.90;;;;;;5044177;28;20098;-76
2023/06/21 02:02:18;;;;;;;1.88;1.55;;;18.00;99.90;;;;;;5044288;28;20052;-74
2023/06/21 02:04:46;;;;;;;2.38;2.17;;;18.00;99.90;;;;;;5044219;28;20060;-75
2023/06/21 02:07:13;;;;;;;1.75;0.90;;;18.00;99.90;;;;;;5044200;28;20135;-75
2023/06/21 02:09:42;;;;;;;3.10;1.90;;;17.90;99.90;;;;;;5044109;28;20514;-74
2023/06/21 02:12:08;;;;;;;0.98;0.70;;;18.00;99.90;;;;;;5043844;28;20120;-75
2023/06/21 02:14:34;;;;;;;2.42;2.08;;;18.00;99.90;;;;;;5043959;28;20182;-74
2023/06/21 02:16:59;;;;;;;1.63;1.13;;;18.10;99.90;;;;;;5044075;28;20051;-75
2023/06/21 02:19:25;;;;;;;2.92;1.75;;;18.10;99.90;;;;;;5043933;28;20404;-75
2023/06/21 02:21:51;;;;;;;0.75;0.52;;;18.00;99.90;;;;;;5044492;28;20088;-75
2023/06/21 02:24:17;;;;;;;3.20;1.77;;;18.00;99.90;;;;;;5041527;28;20055;-75
2023/06/21 02:26:43;;;;;;;2.63;1.52;;;18.10;99.90;;;;;;5041038;28;20049;-75
2023/06/21 02:29:08;;;;;;;2.58;1.75;;;18.00;99.90;;;;;;5040636;28;20041;-75
2023/06/21 02:31:34;;;;;;;1.60;1.50;;;18.00;99.90;;;;;;5040882;28;20047;-75
2023/06/21 02:34:00;;;;;;;3.72;1.60;;;17.90;99.90;;;;;;5040941;28;20044;-75
2023/06/21 02:36:25;;;;;;;1.80;1.58;;;17.90;99.90;;;;;;5040898;28;20052;-75
2023/06/21 02:38:52;;;;;;;1.55;1.45;;;17.90;99.90;;;;;;5041439;28;20041;-75
2023/06/21 02:41:17;;;;;;;5.30;2.55;;;17.90;99.90;;;;;;5024534;28;20448;-74
2023/06/21 02:43:43;;;;;;;2.17;1.67;;;18.00;99.90;;;;;;5041840;28;20130;-74
2023/06/21 02:46:09;;;;;;;1.42;1.33;;;18.00;99.90;;;;;;5041841;28;20074;-75
2023/06/21 02:48:34;;;;;;;7.32;2.38;;;17.90;99.90;;;;;;5040882;28;20425;-75
2023/06/21 02:51:00;;;;;;;7.05;2.13;;;18.00;99.90;;;;;;5040856;28;20495;-75
2023/06/21 02:53:26;;;;;;;2.72;1.88;;;18.00;99.90;;;;;;5040245;28;20085;-75
2023/06/21 02:55:51;;;;;;;1.45;1.35;;;18.00;99.90;;;;;;5040724;28;20045;-74
2023/06/21 02:58:17;;;;;;;3.60;2.35;;;18.00;99.90;;;;;;5041242;28;20045;-75
2023/06/21 03:00:43;;;;;;;1.73;1.60;;;18.00;99.90;;;;;;5044829;28;20064;-74
2023/06/21 03:03:08;;;;;;;4.13;3.08;;;18.00;99.90;;;;;;5045095;28;20041;-75
2023/06/21 03:05:35;;;;;;;10.25;2.10;;;18.00;99.90;;;;;;5045323;28;20138;-75
2023/06/21 03:08:04;;;;;;;4.03;2.90;;;18.00;99.90;;;;;;5045444;28;20453;-75
2023/06/21 03:10:32;;;;;;;9.55;2.17;;;18.00;99.90;;;;;;5045172;28;20063;-75
2023/06/21 03:12:58;;;;;;;7.53;2.65;;;17.90;99.90;;;;;;5045423;28;20045;-74
2023/06/21 03:15:24;;;;;;;4.88;2.47;;;17.90;99.90;;;;;;5044490;28;20044;-75
2023/06/21 03:17:50;;;;;;;4.60;2.53;;;17.80;99.90;;;;;;5044881;28;20045;-74
2023/06/21 03:20:16;;;;;;;4.47;2.95;;;17.80;99.90;;;;;;5044256;28;20423;-75
2023/06/21 03:22:42;;;;;;;5.15;2.58;;;17.80;99.90;;;;;;5045160;28;20072;-75
2023/06/21 03:25:12;;;;;;;4.45;2.55;;;17.80;99.90;;;;;;5044990;28;20411;-74
2023/06/21 03:27:37;;;;;;;2.67;2.15;;;17.90;99.90;;;;;;5045303;28;20041;-75
2023/06/21 03:30:05;;;;;;;2.35;2.05;;;17.90;99.90;;;;;;5045574;28;20333;-75
2023/06/21 03:32:30;;;;;;;2.65;2.08;;;17.90;99.90;;;;;;5045147;28;20060;-74
2023/06/21 03:34:59;;;;;;;6.03;2.83;;;17.90;99.90;;;;;;5044997;28;20045;-74
2023/06/21 03:37:27;;;;;;;7.05;3.67;;;17.90;99.90;;;;;;5044932;28;20396;-74
2023/06/21 03:39:53;;;;;;;7.03;3.20;;;18.00;99.90;;;;;;5044904;28;20560;-74
2023/06/21 03:42:19;;;;;;;5.35;3.65;;;18.00;99.90;;;;;;5043741;28;20045;-75
2023/06/21 03:44:45;;;;;;;4.13;2.85;;;17.90;99.90;;;;;;5044249;28;20041;-75
2023/06/21 03:47:12;;;;;;;3.67;2.63;;;17.90;99.90;;;;;;5044648;28;20084;-74
2023/06/21 03:49:38;;;;;;;5.85;3.05;;;18.10;99.90;;;;;;5044728;28;20059;-74
2023/06/21 03:52:05;;;;;;;3.05;2.65;;;17.90;99.90;;;;;;5044773;28;20053;-75
2023/06/21 03:54:31;;;;;;;3.80;3.33;;;18.00;99.90;;;;;;5044520;28;20041;-74
2023/06/21 03:56:57;;;;;;;3.80;3.28;;;18.00;99.90;;;;;;5044285;28;20072;-75
2023/06/21 03:59:23;;;;;;;3.78;3.17;;;18.00;99.90;;;;;;5043974;28;20120;-75
2023/06/21 04:01:49;;;;;;;4.75;2.55;;;18.10;99.90;;;;;;5044236;28;20514;-75
2023/06/21 04:04:14;;;;;;;6.57;3.78;;;18.00;99.90;;;;;;5044010;28;20049;-75
2023/06/21 04:06:40;;;;;;;9.43;5.13;;;18.00;99.90;;;;;;5043930;28;20102;-75
2023/06/21 04:09:05;;;;;;;3.53;2.92;;;17.90;99.90;;;;;;5043687;28;20439;-75
2023/06/21 04:11:32;;;;;;;5.90;2.97;;;17.90;99.90;;;;;;5043826;28;20044;-75
2023/06/21 04:13:57;;;;;;;4.05;3.65;;;17.90;99.90;;;;;;5043630;28;20415;-75
2023/06/21 04:16:23;;;;;;;3.33;2.63;;;17.80;99.90;;;;;;5045275;28;20049;-75
2023/06/21 04:18:49;;;;;;;5.93;3.97;;;17.90;99.90;;;;;;5064079;28;20126;-75
2023/06/21 04:21:14;;;;;;;3.22;2.85;;;17.90;99.90;;;;;;5063718;28;20161;-75
2023/06/21 04:23:40;;;;;;;3.15;2.70;;;17.90;99.90;;;;;;5063467;28;20080;-75
2023/06/21 04:26:06;;;;;;;2.50;2.15;;;17.90;99.90;;;;;;5064028;28;20048;-75
2023/06/21 04:28:33;;;;;;;4.47;3.13;;;17.90;99.90;;;;;;5063485;28;20102;-75
2023/06/21 04:31:00;;;;;;;6.38;3.47;;;18.10;99.90;;;;;;5063882;28;20045;-75
2023/06/21 04:33:26;;;;;;;2.00;1.83;;;18.40;99.90;;;;;;5063303;28;20048;-74
2023/06/21 04:35:52;;;;;;;3.72;2.55;;;18.50;99.90;;;;;;5063644;28;20472;-74
2023/06/21 04:38:18;;;;;;;4.80;2.72;;;18.40;99.90;;;;;;5063504;28;20051;-74
2023/06/21 04:40:44;;;;;;;9.43;4.78;;;18.20;99.90;;;;;;5063110;28;20110;-74
2023/06/21 04:43:09;;;;;;;12.27;3.83;;;18.20;99.90;;;;;;5063410;28;20060;-75
2023/06/21 04:45:35;;;;;;;3.85;2.95;;;18.30;99.90;;;;;;5055003;28;20050;-75
2023/06/21 04:48:03;;;;;;;5.97;3.25;;;18.40;99.90;;;;;;5053335;28;20044;-75
2023/06/21 04:50:30;;;;;;;3.08;1.98;;;18.50;99.90;;;;;;5063265;28;20314;-74
2023/06/21 04:52:59;;;;;;;2.70;2.47;;;18.50;99.90;;;;;;5062746;28;20047;-74
2023/06/21 04:55:25;;;;;;;2.25;2.05;;;18.60;99.90;;;;;;5062462;28;20055;-75
2023/06/21 04:57:51;;;;;;;3.67;2.85;;;18.70;99.90;;;;;;5061366;28;20143;-75
2023/06/21 05:00:20;;;;;;;3.08;2.78;;;18.70;99.90;;;;;;5063410;28;20548;-75
2023/06/21 05:02:47;;;;;;;2.92;2.20;;;18.70;99.90;;;;;;5063074;28;20076;-75
2023/06/21 05:05:12;;;;;;;2.90;2.42;;;18.80;99.90;;;;;;5051678;28;20140;-75
2023/06/21 05:07:38;;;;;;;4.15;3.05;;;18.80;99.90;;;;;;5035825;28;20057;-75
2023/06/21 05:10:08;;;;;;;6.32;4.22;;;18.90;99.90;;;;;;5040640;28;20094;-75
2023/06/21 05:12:37;;;;;;;1.88;1.73;;;19.00;99.90;;;;;;5040309;28;20124;-75
2023/06/21 05:15:03;;;;;;;3.53;2.67;;;19.10;99.90;;;;;;5040942;28;20041;-75
2023/06/21 05:17:29;;;;;;;3.78;3.33;;;19.30;99.90;;;;;;5039763;28;20384;-75
2023/06/21 05:19:54;;;;;;;5.88;2.53;;;19.60;99.90;;;;;;5039619;28;20060;-75
2023/06/21 05:22:20;;;;;;;5.82;3.40;;;19.70;99.90;;;;;;5040547;28;20045;-75
2023/06/21 05:24:46;;;;;;;4.07;2.95;;;19.60;99.90;;;;;;5043524;28;20395;-75
2023/06/21 05:27:11;;;;;;;8.20;4.00;;;19.80;99.90;;;;;;5042303;28;20084;-75
2023/06/21 05:29:37;;;;;;;2.35;1.95;;;20.40;99.90;;;;;;5042933;28;20041;-75
2023/06/21 05:32:03;;;;;;;14.82;3.75;;;20.70;99.90;;;;;;5042474;28;20402;-75
2023/06/21 05:34:30;;;;;;;7.47;3.33;;;20.90;8.80;;;;;;5042164;28;20696;-75
2023/06/21 05:36:57;;;;;;;4.15;2.38;;;21.10;99.90;;;;;;5042308;28;20051;-75
2023/06/21 05:39:23;;;;;;;4.28;3.45;;;21.20;99.90;;;;;;5042309;28;20055;-75
2023/06/21 05:41:48;;;;;;;2.35;2.15;;;21.30;99.90;;;;;;5042413;28;20053;-75
2023/06/21 05:44:14;;;;;;;4.85;2.53;;;21.40;42.50;;;;;;5042438;28;20040;-75
2023/06/21 05:46:40;;;;;;;3.95;2.88;;;21.30;99.90;;;;;;5042399;28;20040;-75
2023/06/21 05:49:06;;;;;;;3.40;2.28;;;21.20;18.00;;;;;;5042224;28;20107;-75
2023/06/21 05:51:31;;;;;;;1.73;1.02;;;21.40;1.00;;;;;;5042065;28;20044;-75
2023/06/21 05:53:57;;;;;;;2.55;1.77;;;21.90;1.20;;;;;;5042196;28;20041;-75
2023/06/21 05:56:27;;;;;;;1.10;1.00;;;22.10;99.90;;;;;;5042072;28;20045;-75
2023/06/21 05:58:53;;;;;;;2.65;2.25;;;22.00;99.90;;;;;;5042004;28;20098;-75
2023/06/21 06:01:20;;;;;;;8.13;2.67;;;22.20;26.90;;;;;;5040515;28;20041;-75
2023/06/21 06:03:46;;;;;;;1.10;1.00;;;22.10;23.50;;;;;;5039760;28;20140;-75
2023/06/21 06:06:15;;;;;;;1.88;1.70;;;22.00;80.60;;;;;;5039967;28;20115;-75
2023/06/21 06:08:41;;;;;;;2.53;1.70;;;21.90;99.90;;;;;;5039937;28;20063;-75
2023/06/21 06:11:06;;;;;;;2.15;1.63;;;22.20;99.90;;;;;;5039688;28;20554;-75
2023/06/21 06:13:32;;;;;;;1.30;1.05;;;22.70;92.10;;;;;;5038832;28;20041;-75
2023/06/21 06:15:58;;;;;;;3.97;1.65;;;23.10;99.90;;;;;;5038947;28;20043;-74
2023/06/21 06:18:23;;;;;;;3.33;1.27;;;22.90;99.90;;;;;;5039301;28;20131;-74
2023/06/21 06:20:49;;;;;;;0.65;0.60;;;22.80;99.90;;;;;;5039295;28;20068;-75
2023/06/21 06:23:14;;;;;;;2.17;2.00;;;23.20;99.90;;;;;;5039518;28;20512;-75
2023/06/21 06:25:40;;;;;;;3.05;1.85;;;23.20;80.40;;;;;;5039466;28;20111;-74
2023/06/21 06:28:06;;;;;;;2.20;1.27;;;23.60;99.90;;;;;;5039204;28;20450;-74
2023/06/21 06:30:32;;;;;;;1.83;0.90;;;23.90;1.00;;;;;;5021542;28;20052;-74
2023/06/21 06:32:58;;;;;;;2.95;1.92;;;24.10;1.00;;;;;;5040678;28;20041;-74
2023/06/21 06:35:23;;;;;;;4.75;2.10;;;23.90;1.00;;;;;;5043077;28;20132;-74
2023/06/21 06:37:49;;;;;;;1.65;1.15;;;23.70;1.00;;;;;;5043530;28;20415;-74
2023/06/21 06:40:15;;;;;;;0.60;0.60;;;23.50;99.90;;;;;;5043434;28;20136;-74
2023/06/21 06:42:40;;;;;;;1.02;0.93;;;23.70;99.90;;;;;;5043252;28;20668;-74
2023/06/21 06:45:07;;;;;;;0.82;0.82;;;24.10;99.90;;;;;;5043273;28;20406;-74
2023/06/21 06:47:33;;;;;;;2.78;2.03;;;24.70;1.00;;;;;;5044305;28;20442;-74
2023/06/21 06:49:58;;;;;;;0.70;0.70;;;25.40;1.00;;;;;;5045829;28;20045;-75
2023/06/21 06:52:24;;;;;;;0.68;0.60;;;26.00;99.90;;;;;;5045553;28;20052;-74
2023/06/21 06:54:50;;;;;;;2.58;1.58;;;26.00;99.90;;;;;;5046022;28;20853;-74
2023/06/21 06:57:16;;;;;;;1.10;1.05;;;26.60;99.90;;;;;;5046435;28;20110;-74
2023/06/21 06:59:41;;;;;;;9.82;2.85;;;26.70;99.90;;;;;;5045731;28;20487;-74
2023/06/21 07:02:07;;;;;;;2.95;1.00;;;26.40;99.90;;;;;;5045534;28;20132;-74
2023/06/21 07:04:32;;;;;;;0.40;0.40;;;26.50;99.90;;;;;;5045487;28;20909;-74
2023/06/21 07:07:01;;;;;;;1.25;0.65;;;26.70;99.90;;;;;;5043590;28;20052;-75
2023/06/21 07:09:27;;;;;;;0.60;0.45;;;26.90;99.90;;;;;;5043678;28;20072;-75
2023/06/21 07:11:56;;;;;;;0.47;0.40;;;26.80;99.90;;;;;;5043339;28;20082;-75
2023/06/21 07:14:23;;;;;;;0.95;0.57;;;27.30;99.90;;;;;;5043201;28;20556;-74
2023/06/21 07:16:50;;;;;;;3.33;1.25;;;27.90;99.90;;;;;;5043408;28;20407;-75
2023/06/21 07:19:16;;;;;;;0.60;0.47;;;28.30;99.90;;;;;;5043032;28;20144;-75
2023/06/21 07:21:42;;;;;;;1.50;0.90;;;28.10;48.20;;;;;;5044100;28;20061;-75
2023/06/21 07:24:07;;;;;;;0.77;0.60;;;27.90;1.00;;;;;;5044824;28;20055;-75
2023/06/21 07:26:33;;;;;;;0.75;0.40;;;28.00;1.00;;;;;;5045009;28;20486;-75
2023/06/21 07:28:59;;;;;;;0.63;0.63;;;28.20;1.00;;;;;;5044776;28;20049;-75
2023/06/21 07:31:25;;;;;;;0.35;0.35;;;28.20;1.00;;;;;;5044796;28;20045;-75
2023/06/21 07:33:56;;;;;;;3.05;0.75;;;27.90;1.00;;;;;;5044701;28;20037;-75
2023/06/21 07:36:21;;;;;;;1.23;0.95;;;28.10;1.00;;;;;;5044987;28;20080;-75
2023/06/21 07:38:48;;;;;;;0.25;0.25;;;28.20;1.00;;;;;;5043370;28;20087;-75
2023/06/21 07:41:14;;;;;;;0.75;0.65;;;28.30;1.00;;;;;;5044740;28;20106;-75
2023/06/21 07:43:40;;;;;;;1.75;0.60;;;28.10;99.90;;;;;;5044603;28;20032;-75
2023/06/21 07:46:06;;;;;;;2.00;0.73;;;27.60;99.90;;;;;;5044100;28;20377;-75
2023/06/21 07:48:33;;;;;;;0.80;0.50;;;27.50;99.90;;;;;;5044248;28;20041;-75
2023/06/21 07:51:00;;;;;;;0.40;0.30;;;27.40;99.90;;;;;;5044628;28;20066;-75
2023/06/21 07:53:25;;;;;;;0.85;0.75;;;27.70;99.90;;;;;;5044209;28;20049;-73
2023/06/21 07:55:51;;;;;;;0.35;0.35;;;28.20;99.90;;;;;;5044732;28;20052;-74
2023/06/21 07:58:16;;;;;;;0.40;0.30;;;28.60;99.90;;;;;;5044181;28;20049;-74
2023/06/21 08:00:42;;;;;;;0.13;0.13;;;28.30;99.90;;;;;;5044266;28;20120;-74
2023/06/21 08:03:08;;;;;;;0.85;0.77;;;28.00;99.90;;;;;;5043839;28;20052;-74
2023/06/21 08:05:33;;;;;;;0.30;0.22;;;28.20;99.90;;;;;;5044075;28;20127;-74
2023/06/21 08:08:01;;;;;;;0.93;0.82;;;28.60;99.90;;;;;;5044142;28;20124;-73
2023/06/21 08:10:27;;;;;;;0.55;0.30;;;29.00;99.90;;;;;;5044063;28;20048;-74
2023/06/21 08:12:53;;;;;;;0.35;0.35;;;29.30;99.90;;;;;;5043989;28;20060;-74
2023/06/21 08:15:19;;;;;;;2.47;0.73;;;29.60;99.90;;;;;;5043766;28;20041;-74
2023/06/21 08:17:44;;;;;;;0.73;0.65;;;28.90;99.90;;;;;;5043371;28;20499;-74
2023/06/21 08:20:11;;;;;;;1.92;1.13;;;28.70;99.90;;;;;;5043289;28;20503;-75
2023/06/21 08:22:36;;;;;;;0.52;0.30;;;28.80;99.90;;;;;;5042373;28;20297;-75
2023/06/21 08:25:02;;;;;;;0.47;0.43;;;28.80;99.90;;;;;;5043839;28;20495;-74
2023/06/21 08:27:28;;;;;;;0.75;0.40;;;29.00;99.90;;;;;;5043589;28;20271;-75
2023/06/21 08:29:53;;;;;;;1.20;0.70;;;29.30;99.90;;;;;;5043484;28;20040;-75
2023/06/21 08:32:19;;;;;;;1.77;0.57;;;29.60;99.90;;;;;;5043903;28;20048;-75
2023/06/21 08:34:46;;;;;;;0.55;0.45;;;29.90;99.90;;;;;;5043761;28;20080;-75
2023/06/21 08:37:11;;;;;;;2.67;0.95;;;30.10;99.90;;;;;;5043964;28;20119;-75
2023/06/21 08:39:37;;;;;;;0.75;0.55;;;30.10;83.30;;;;;;5043655;28;20875;-75
2023/06/21 08:42:03;;;;;;;1.23;0.80;;;30.00;91.00;;;;;;5043694;28;20095;-75
2023/06/21 08:44:29;;;;;;;0.43;0.43;;;30.20;42.90;;;;;;5043369;28;20041;-75
2023/06/21 08:46:55;;;;;;;0.88;0.88;;;30.30;66.90;;;;;;5043214;28;20514;-75
2023/06/21 08:49:25;;;;;;;0.47;0.35;;;30.10;30.50;;;;;;5043010;28;20463;-75
2023/06/21 08:51:54;;;;;;;2.95;0.63;;;29.10;1.00;;;;;;5032834;28;20060;-75
2023/06/21 08:54:29;;;;;;;3.25;1.27;;;28.60;1.00;;;;;;5022648;28;20049;-75
2023/06/21 08:56:55;;;;;;;;;;;28.20;1.00;;;;;;5023552;28;20535;-75
2023/06/21 08:59:47;;;;;;;0.55;0.40;;;28.90;1.00;;;;;;5023257;28;19971;-75
2023/06/21 09:02:15;;;;;;;0.20;0.10;;;29.10;1.00;;;;;;5023208;28;20099;-75
2023/06/21 09:04:47;;;;;;;0.70;0.45;;;29.90;1.00;;;;;;5022995;28;20052;-75
2023/06/21 09:07:14;;;;;;;1.23;0.73;;;30.60;1.00;;;;;;5022987;28;20056;-75
2023/06/21 09:09:43;;;;;;;0.65;0.57;;;29.90;1.00;;;;;;5022974;28;20522;-75
2023/06/21 09:12:12;;;;;;;0.20;0.10;;;28.90;1.00;;;;;;5022916;28;20048;-75
2023/06/21 09:14:39;;;;;;;0.35;0.30;;;28.00;99.90;;;;;;5023111;28;20480;-75
2023/06/21 09:17:07;;;;;;;0.65;0.43;;;28.00;1.00;;;;;;5023142;28;20098;-75
2023/06/21 09:19:35;;;;;;;0.20;0.20;;;28.70;1.00;;;;;;5022974;28;20562;-75
2023/06/21 09:22:01;;;;;;;0.70;0.52;;;29.30;1.00;;;;;;5023291;28;20058;-75
2023/06/21 09:24:26;;;;;;;2.08;0.45;;;29.90;1.00;;;;;;5022828;28;20056;-75
2023/06/21 09:26:52;;;;;;;0.55;0.52;;;29.40;1.00;;;;;;5022948;28;20103;-75
2023/06/21 09:29:18;;;;;;;0.13;0.13;;;29.20;1.00;;;;;;5022844;28;20046;-75
2023/06/21 09:31:44;;;;;;;0.30;0.20;;;29.50;1.00;;;;;;5022632;28;20046;-75
2023/06/21 09:34:10;;;;;;;4.78;0.40;;;29.90;1.00;;;;;;5023131;28;20045;-75
2023/06/21 09:36:35;;;;;;;0.28;0.25;;;30.70;1.00;;;;;;5022513;28;20473;-75
2023/06/21 09:39:08;;;;;;;0.43;0.40;;;31.50;1.00;;;;;;5022350;28;20049;-75
2023/06/21 09:41:34;;;;;;;0.15;0.15;;;31.90;99.90;;;;;;5022869;28;20408;-75
2023/06/21 09:43:59;;;;;;;0.25;0.25;;;32.10;99.90;;;;;;5022737;28;20497;-75
2023/06/21 09:46:25;;;;;;;0.40;0.40;;;32.40;99.90;;;;;;5022918;28;20145;-75
2023/06/21 09:48:51;;;;;;;0.57;0.50;;;32.20;99.90;;;;;;5022320;28;20084;-74
2023/06/21 09:51:22;;;;;;;0.80;0.47;;;32.20;99.90;;;;;;5022473;28;20115;-75
2023/06/21 09:53:50;;;;;;;0.15;0.15;;;32.10;99.90;;;;;;5022720;28;20554;-75
2023/06/21 09:56:18;;;;;;;1.88;0.90;;;32.20;99.90;;;;;;5022124;28;20045;-75
2023/06/21 09:58:44;;;;;;;0.15;0.15;;;31.90;99.90;;;;;;5036670;28;20102;-75
2023/06/21 10:01:14;;;;;;;1.65;0.93;;;31.30;99.90;;;;;;5042258;28;20411;-74
2023/06/21 10:03:44;;;;;;;0.13;0.13;;;30.70;99.90;;;;;;5041718;28;20072;-75
2023/06/21 10:06:16;;;;;;;0.10;0.05;;;30.10;99.90;;;;;;5042057;28;20080;-75
2023/06/21 10:08:42;;;;;;;0.63;0.57;;;29.60;99.90;;;;;;5024437;28;20519;-75
2023/06/21 10:11:08;;;;;;;1.95;0.75;;;29.70;99.90;;;;;;5042120;28;20510;-75
2023/06/21 10:13:37;;;;;;;0.10;0.10;;;30.20;99.90;;;;;;5041758;28;20395;-75
2023/06/21 10:16:03;;;;;;;3.10;0.35;;;30.40;99.90;;;;;;5041951;28;20053;-75
2023/06/21 10:18:30;;;;;;;0.30;0.25;;;30.00;99.90;;;;;;5041697;28;20114;-75
2023/06/21 10:21:07;;;;;;;0.13;0.10;;;29.10;99.90;;;;;;5024224;28;20053;-75
2023/06/21 10:23:37;;;;;;;0.10;0.10;;;28.90;99.90;;;;;;5042116;28;20059;-75
2023/06/21 10:26:05;;;;;;;1.15;0.63;;;29.10;99.90;;;;;;5042036;28;20519;-75
2023/06/21 10:28:39;;;;;;;0.55;0.15;;;29.40;99.90;;;;;;5042157;28;20051;-75
2023/06/21 10:31:08;;;;;;;0.10;0.10;;;29.50;99.90;;;;;;5041848;28;20047;-75
2023/06/21 10:33:36;;;;;;;0.10;0.10;;;29.60;99.90;;;;;;5041999;28;20048;-75
2023/06/21 10:36:03;;;;;;;0.00;0.00;;;29.60;99.90;;;;;;5041970;28;20080;-75
2023/06/21 10:38:46;;;;;;;0.20;0.20;;;29.50;99.90;;;;;;5041920;28;20052;-75
2023/06/21 10:41:14;;;;;;;0.17;0.13;;;29.60;99.90;;;;;;5042188;28;20049;-74
2023/06/21 10:43:42;;;;;;;0.13;0.13;;;29.30;99.90;;;;;;5041872;28;20041;-75
2023/06/21 10:46:10;;;;;;;0.38;0.20;;;29.00;99.90;;;;;;5041417;28;20059;-75
2023/06/21 10:48:36;;;;;;;0.32;0.32;;;28.50;99.90;;;;;;5041174;28;20495;-75
2023/06/21 10:51:02;;;;;;;0.10;0.10;;;28.30;99.90;;;;;;5041384;28;20048;-75
2023/06/21 10:53:35;;;;;;;1.52;0.95;;;28.60;99.90;;;;;;5041373;28;20407;-75
2023/06/21 10:56:02;;;;;;;0.10;0.10;;;29.20;99.90;;;;;;5041534;28;20514;-75
2023/06/21 10:58:29;;;;;;;0.13;0.13;;;29.40;99.90;;;;;;5041385;28;20045;-75
2023/06/21 11:00:55;;;;;;;0.17;0.17;;;29.50;99.90;;;;;;5041986;28;20108;-75
2023/06/21 11:03:25;;;;;;;0.20;0.13;;;29.40;99.90;;;;;;5041518;28;20087;-75
2023/06/21 11:06:24;;;;;;;0.43;0.30;;;29.20;99.90;;;;;;5041577;28;20398;-75
2023/06/21 11:08:50;;;;;;;0.10;0.10;;;29.10;99.90;;;;;;5041849;28;20130;-75
2023/06/21 11:11:33;;;;;;;1.48;1.05;;;29.30;99.90;;;;;;5041287;28;20041;-75
2023/06/21 11:14:01;;;;;;;0.13;0.10;;;29.70;99.90;;;;;;5041432;28;20488;-75
2023/06/21 11:16:30;;;;;;;1.60;0.47;;;29.80;99.90;;;;;;5041450;28;20569;-75
2023/06/21 11:18:59;;;;;;;0.43;0.15;;;29.60;99.90;;;;;;5041177;28;20664;-75
2023/06/21 11:21:41;;;;;;;1.70;0.50;;;29.50;99.90;;;;;;5045477;28;20459;-75
2023/06/21 11:24:08;;;;;;;0.00;0.00;;;29.60;99.90;;;;;;5045079;28;20538;-75
2023/06/21 11:27:02;;;;;;;1.75;0.80;;;29.60;99.90;;;;;;5045358;28;20041;-75
2023/06/21 11:29:37;;;;;;;0.00;0.00;;;29.50;99.90;;;;;;5045080;28;20033;-75
2023/06/21 11:32:09;;;;;;;0.55;0.45;;;29.50;99.90;;;;;;5044895;28;20040;-75
2023/06/21 11:34:35;;;;;;;0.05;0.03;;;29.20;99.90;;;;;;5044460;28;20503;-75
2023/06/21 11:37:41;;;;;;;0.10;0.10;;;28.90;99.90;;;;;;5044929;28;20041;-75
2023/06/21 11:40:24;;;;;;;;;;;28.50;99.90;;;;;;5045229;28;20454;-75
2023/06/21 11:42:52;;;;;;;0.25;0.22;;;28.30;99.90;;;;;;5044842;28;20303;-75
2023/06/21 11:45:26;;;;;;;0.32;0.30;;;29.40;99.90;;;;;;5044607;28;20045;-75
2023/06/21 11:48:12;;;;;;;0.10;0.10;;;29.60;99.90;;;;;;5044572;28;20045;-75
2023/06/21 11:50:43;;;;;;;0.10;0.10;;;29.70;99.90;;;;;;5044544;28;20283;-75
2023/06/21 11:53:13;;;;;;;2.60;0.32;;;29.50;99.90;;;;;;5044738;28;20045;-75
2023/06/21 11:55:38;;;;;;;0.10;0.10;;;29.50;99.90;;;;;;5044493;28;20072;-75
2023/06/21 11:58:07;;;;;;;1.33;0.30;;;30.30;99.90;;;;;;5044214;28;20076;-75
2023/06/21 12:00:33;;;;;;;0.00;0.00;;;31.70;99.90;;;;;;5044439;28;20508;-76
2023/06/21 12:03:01;;;;;;;0.70;0.22;;;32.40;99.90;;;;;;5043273;28;20048;-75
2023/06/21 12:05:26;;;;;;;0.00;0.00;;;32.40;99.90;;;;;;5044588;28;20050;-75
2023/06/21 12:07:52;;;;;;;0.63;0.38;;;31.90;99.90;;;;;;5044796;28;20526;-75
2023/06/21 12:10:17;;;;;;;0.35;0.35;;;30.90;99.90;;;;;;5044234;28;20052;-75
2023/06/21 12:12:43;;;;;;;0.00;0.00;;;30.10;97.90;;;;;;5043899;28;20044;-75
2023/06/21 12:15:10;;;;;;;0.20;0.20;;;29.20;81.30;;;;;;5043905;28;20103;-75
2023/06/21 12:17:35;;;;;;;0.10;0.10;;;28.80;75.40;;;;;;5043845;28;20186;-75
2023/06/21 12:20:05;;;;;;;0.10;0.10;;;29.10;75.60;;;;;;5042327;28;20477;-75
2023/06/21 12:22:30;;;;;;;0.00;0.00;;;29.00;73.70;;;;;;5044177;28;20376;-75
2023/06/21 12:24:56;;;;;;;1.15;0.55;;;29.90;95.00;;;;;;5043893;28;20059;-74
2023/06/21 12:27:22;;;;;;;0.10;0.10;;;31.10;98.00;;;;;;5043582;28;20045;-74
2023/06/21 12:29:51;;;;;;;0.00;0.00;;;31.90;99.90;;;;;;5026137;28;20052;-75
2023/06/21 12:32:20;;;;;;;1.48;0.63;;;31.60;99.90;;;;;;5043667;28;20048;-75
2023/06/21 12:34:46;;;;;;;0.28;0.22;;;30.80;99.90;;;;;;5043987;28;20538;-75
2023/06/21 12:37:21;;;;;;;0.10;0.10;;;29.80;70.70;;;;;;5043896;28;20126;-75
2023/06/21 12:39:52;;;;;;;0.00;0.00;;;29.40;61.90;;;;;;5043997;28;20040;-75
2023/06/21 12:42:19;;;;;;;0.00;0.00;;;30.30;68.40;;;;;;5043716;28;20049;-75
2023/06/21 12:44:45;;;;;;;0.17;0.15;;;31.60;87.30;;;;;;5043519;28;20045;-75
2023/06/21 12:47:12;;;;;;;0.00;0.00;;;32.60;91.80;;;;;;5043800;28;20041;-75
2023/06/21 12:49:37;;;;;;;0.45;0.30;;;32.40;49.50;;;;;;5043474;28;20045;-75